createdAt,value
2019-02-21T00:00:24.697Z,18.10
2019-02-21T00:02:54.267Z,17.70
2019-02-21T00:05:23.736Z,18.57
2019-02-21T00:07:53.117Z,18.83
2019-02-21T00:10:22.534Z,18.73
2019-02-21T00:13:05.232Z,18.20
2019-02-21T00:15:37.509Z,18.73
2019-02-21T00:18:06.909Z,17.67
2019-02-21T00:20:36.349Z,18.07
2019-02-21T00:23:07.572Z,18.47
2019-02-21T00:25:56.315Z,18.73
2019-02-21T00:28:25.728Z,18.47
2019-02-21T00:30:55.129Z,18.40
2019-02-21T00:33:39.017Z,17.20
2019-02-21T00:36:08.514Z,18.43
2019-02-21T00:38:37.936Z,18.33
2019-02-21T00:41:07.375Z,17.07
2019-02-21T00:43:49.790Z,16.93
2019-02-21T00:46:38.558Z,17.50
2019-02-21T00:49:07.974Z,16.97
2019-02-21T00:51:37.396Z,17.43
2019-02-21T00:54:06.825Z,17.83
2019-02-21T00:56:36.260Z,17.93
2019-02-21T00:59:05.772Z,18.13
2019-02-21T01:01:35.276Z,16.43
2019-02-21T01:04:24.049Z,17.27
2019-02-21T01:06:53.572Z,17.20
2019-02-21T01:09:22.985Z,18.20
2019-02-21T01:11:52.447Z,18.00
2019-02-21T01:14:21.850Z,18.27
2019-02-21T01:16:51.290Z,18.60
2019-02-21T01:19:20.717Z,18.70
2019-02-21T01:21:50.168Z,18.07
2019-02-21T01:24:19.564Z,17.43
2019-02-21T01:26:48.972Z,17.77
2019-02-21T01:29:18.476Z,17.80
2019-02-21T01:31:47.948Z,18.37
2019-02-21T01:34:18.657Z,17.80
2019-02-21T01:37:07.423Z,18.43
2019-02-21T01:39:36.793Z,18.27
2019-02-21T01:42:06.230Z,17.70
2019-02-21T01:44:49.570Z,18.10
2019-02-21T01:47:19.023Z,17.60
2019-02-21T01:49:50.093Z,18.00
2019-02-21T01:52:19.568Z,18.67
2019-02-21T01:54:48.981Z,18.17
2019-02-21T01:57:18.392Z,18.73
2019-02-21T01:59:47.860Z,19.00
2019-02-21T02:02:36.645Z,19.83
2019-02-21T02:05:07.808Z,18.30
2019-02-21T02:07:37.367Z,19.27
2019-02-21T02:10:08.614Z,18.57
2019-02-21T02:12:38.055Z,18.33
2019-02-21T02:15:09.299Z,19.50
2019-02-21T02:17:38.719Z,19.37
2019-02-21T02:20:08.991Z,18.27
2019-02-21T02:22:38.484Z,19.20
2019-02-21T02:25:07.913Z,20.03
2019-02-21T02:27:56.764Z,19.77
2019-02-21T02:30:26.277Z,18.50
2019-02-21T02:32:55.873Z,19.10
2019-02-21T02:35:25.549Z,19.20
2019-02-21T02:37:54.984Z,18.67
2019-02-21T02:40:37.846Z,17.40
2019-02-21T02:43:07.266Z,18.77
2019-02-21T02:45:36.862Z,18.00
2019-02-21T02:48:06.428Z,17.60
2019-02-21T02:50:35.857Z,17.10
2019-02-21T02:53:05.292Z,17.93
2019-02-21T02:55:34.784Z,17.07
2019-02-21T02:58:06.426Z,17.33
2019-02-21T03:00:35.339Z,17.93
2019-02-21T03:03:04.803Z,18.03
2019-02-21T03:05:34.216Z,18.30
2019-02-21T03:08:03.650Z,18.37
2019-02-21T03:10:33.022Z,17.50
2019-02-21T03:13:02.505Z,17.73
2019-02-21T03:15:31.920Z,17.80
2019-02-21T03:18:01.318Z,18.20
2019-02-21T03:20:30.726Z,18.40
2019-02-21T03:23:13.046Z,18.63
2019-02-21T03:25:43.757Z,17.73
2019-02-21T03:28:13.169Z,17.37
2019-02-21T03:30:42.679Z,18.13
2019-02-21T03:33:25.097Z,16.87
2019-02-21T03:35:54.615Z,17.87
2019-02-21T03:38:36.956Z,17.57
2019-02-21T03:41:06.454Z,17.03
2019-02-21T03:43:35.965Z,17.00
2019-02-21T03:46:05.439Z,17.00
2019-02-21T03:48:34.916Z,18.63
2019-02-21T03:51:04.386Z,18.00
2019-02-21T03:53:47.310Z,18.43
2019-02-21T03:56:16.715Z,17.50
2019-02-21T03:58:46.112Z,18.40
2019-02-21T04:01:15.550Z,18.53
2019-02-21T04:03:44.972Z,17.50
2019-02-21T04:06:16.741Z,17.37
2019-02-21T04:08:46.183Z,17.90
2019-02-21T04:11:15.652Z,18.40
2019-02-21T04:13:45.089Z,17.27
2019-02-21T04:16:14.550Z,17.07
2019-02-21T04:18:44.001Z,18.30
2019-02-21T04:21:13.404Z,18.40
2019-02-21T04:23:42.833Z,18.67
2019-02-21T04:26:12.302Z,18.43
2019-02-21T04:28:41.852Z,18.30
2019-02-21T04:31:11.301Z,18.03
2019-02-21T04:33:40.738Z,19.30
2019-02-21T04:36:11.512Z,18.93
2019-02-21T04:38:40.995Z,18.80
2019-02-21T04:41:10.483Z,18.80
2019-02-21T04:43:39.903Z,18.30
2019-02-21T04:46:09.335Z,20.10
2019-02-21T04:48:38.769Z,20.23
2019-02-21T04:51:08.200Z,19.47
2019-02-21T04:53:37.665Z,20.00
2019-02-21T04:56:07.083Z,20.10
2019-02-21T04:58:36.524Z,18.77
2019-02-21T05:01:06.002Z,19.73
2019-02-21T05:03:35.457Z,20.30
2019-02-21T05:06:07.786Z,21.03
2019-02-21T05:08:37.224Z,21.60
2019-02-21T05:11:26.073Z,20.00
2019-02-21T05:14:08.215Z,20.33
2019-02-21T05:16:37.589Z,21.47
2019-02-21T05:19:07.008Z,22.07
2019-02-21T05:21:48.991Z,19.30
2019-02-21T05:24:31.640Z,19.23
2019-02-21T05:27:02.740Z,21.33
2019-02-21T05:29:32.146Z,21.10
2019-02-21T05:32:04.779Z,20.57
2019-02-21T05:34:35.760Z,20.87
2019-02-21T05:37:07.168Z,21.10
2019-02-21T05:39:38.167Z,22.80
2019-02-21T05:42:09.247Z,22.27
2019-02-21T05:44:40.251Z,22.33
2019-02-21T05:47:11.319Z,21.80
2019-02-21T05:49:42.321Z,22.67
2019-02-21T05:52:13.325Z,21.87
2019-02-21T05:54:57.629Z,22.80
2019-02-21T05:57:28.733Z,23.53
2019-02-21T05:59:59.766Z,23.70
2019-02-21T06:02:30.848Z,23.80
2019-02-21T06:05:01.842Z,24.03
2019-02-21T06:07:32.931Z,22.97
2019-02-21T06:10:03.961Z,22.70
2019-02-21T06:12:35.021Z,23.90
2019-02-21T06:15:06.651Z,22.77
2019-02-21T06:17:37.659Z,23.97
2019-02-21T06:20:08.869Z,23.77
2019-02-21T06:22:39.943Z,23.20
2019-02-21T06:25:11.100Z,22.37
2019-02-21T06:27:42.136Z,25.77
2019-02-21T06:30:13.124Z,24.97
2019-02-21T06:32:42.641Z,23.27
2019-02-21T06:35:12.026Z,23.97
2019-02-21T06:37:43.024Z,24.00
2019-02-21T06:40:12.495Z,25.80
2019-02-21T06:42:42.039Z,25.87
2019-02-21T06:45:11.534Z,23.87
2019-02-21T06:47:40.951Z,23.70
2019-02-21T06:50:10.444Z,24.50
2019-02-21T06:52:40.638Z,26.10
2019-02-21T06:55:10.314Z,24.53
2019-02-21T06:57:39.930Z,25.90
2019-02-21T07:00:09.350Z,25.43
2019-02-21T07:02:38.792Z,24.93
2019-02-21T07:05:08.233Z,26.30
2019-02-21T07:07:37.680Z,25.83
2019-02-21T07:10:07.759Z,26.33
2019-02-21T07:12:37.171Z,25.80
2019-02-21T07:15:09.634Z,25.17
2019-02-21T07:17:48.795Z,26.33
2019-02-21T07:20:10.189Z,24.83
2019-02-21T07:22:52.128Z,25.30
2019-02-21T07:25:23.148Z,25.20
2019-02-21T07:27:52.574Z,25.07
2019-02-21T07:30:23.209Z,24.80
2019-02-21T07:32:52.986Z,23.53
2019-02-21T07:35:22.378Z,25.10
2019-02-21T07:37:53.695Z,24.27
2019-02-21T07:40:23.251Z,23.13
2019-02-21T07:42:52.687Z,23.10
2019-02-21T07:45:22.105Z,23.80
2019-02-21T07:47:51.558Z,23.93
2019-02-21T07:50:23.028Z,24.43
2019-02-21T07:53:02.016Z,24.33
2019-02-21T07:55:23.393Z,24.00
2019-02-21T07:57:52.813Z,22.43
2019-02-21T08:00:22.302Z,22.17
2019-02-21T08:02:52.223Z,22.43
2019-02-21T08:05:23.577Z,23.03
2019-02-21T08:07:52.775Z,22.13
2019-02-21T08:10:32.782Z,22.90
2019-02-21T08:12:53.786Z,22.13
2019-02-21T08:15:23.407Z,23.13
2019-02-21T08:17:52.850Z,23.40
2019-02-21T08:20:33.267Z,23.13
2019-02-21T08:22:53.392Z,23.77
2019-02-21T08:25:25.599Z,24.70
2019-02-21T08:27:55.065Z,23.40
2019-02-21T08:30:24.510Z,23.43
2019-02-21T08:33:14.897Z,23.20
2019-02-21T08:35:44.318Z,21.77
2019-02-21T08:38:14.829Z,22.57
2019-02-21T08:40:44.374Z,22.27
2019-02-21T08:43:13.813Z,22.73
2019-02-21T08:45:43.241Z,23.63
2019-02-21T08:48:13.522Z,22.93
2019-02-21T08:50:56.617Z,22.77
2019-02-21T08:53:28.171Z,23.70
2019-02-21T08:55:57.293Z,23.17
2019-02-21T08:58:27.062Z,23.27
2019-02-21T09:00:56.571Z,23.73
2019-02-21T09:03:26.045Z,23.47
2019-02-21T09:05:55.682Z,23.60
2019-02-21T09:08:44.487Z,23.23
2019-02-21T09:11:14.076Z,22.87
2019-02-21T09:13:43.444Z,23.87
2019-02-21T09:16:12.957Z,24.60
2019-02-21T09:18:42.356Z,23.77
2019-02-21T09:21:11.797Z,24.70
2019-02-21T09:23:41.164Z,26.13
2019-02-21T09:26:29.973Z,25.70
2019-02-21T09:28:59.425Z,24.97
2019-02-21T09:31:28.832Z,24.83
2019-02-21T09:33:58.279Z,25.27
2019-02-21T09:36:27.771Z,25.73
2019-02-21T09:38:57.549Z,25.77
2019-02-21T09:41:46.357Z,25.67
2019-02-21T09:44:18.139Z,25.00
2019-02-21T09:46:46.956Z,25.23
2019-02-21T09:49:16.403Z,26.20
2019-02-21T09:51:45.866Z,27.77
2019-02-21T09:54:28.174Z,25.90
2019-02-21T09:56:59.324Z,27.03
2019-02-21T09:59:48.211Z,25.87
2019-02-21T10:02:35.648Z,27.27
2019-02-21T10:05:06.699Z,26.43
2019-02-21T10:07:37.126Z,25.80
2019-02-21T10:10:09.930Z,28.50
2019-02-21T10:12:39.526Z,27.67
2019-02-21T10:15:11.131Z,28.03
2019-02-21T10:17:40.725Z,27.10
2019-02-21T10:20:13.129Z,27.37
2019-02-21T10:22:42.551Z,29.37
2019-02-21T10:25:15.188Z,27.90
2019-02-21T10:27:44.703Z,28.50
2019-02-21T10:30:16.911Z,27.67
2019-02-21T10:32:46.368Z,28.43
2019-02-21T10:35:15.948Z,29.50
2019-02-21T10:37:45.586Z,28.20
2019-02-21T10:40:16.464Z,30.10
2019-02-21T10:42:45.883Z,29.27
2019-02-21T10:45:17.931Z,29.90
2019-02-21T10:47:47.407Z,29.83
2019-02-21T10:50:19.140Z,28.63
2019-02-21T10:53:08.057Z,29.40
2019-02-21T10:55:37.613Z,29.07
2019-02-21T10:58:07.038Z,30.10
2019-02-21T11:00:36.763Z,28.70
2019-02-21T11:03:08.784Z,29.60
2019-02-21T11:05:38.459Z,29.83
2019-02-21T11:08:08.009Z,29.90
2019-02-21T11:10:37.614Z,29.50
2019-02-21T11:13:07.182Z,29.53
2019-02-21T11:15:37.893Z,30.80
2019-02-21T11:18:12.356Z,29.73
2019-02-21T11:20:42.139Z,30.43
2019-02-21T11:23:11.528Z,29.37
2019-02-21T11:25:41.353Z,29.37
2019-02-21T11:28:10.803Z,30.17
2019-02-21T11:30:40.360Z,29.80
2019-02-21T11:33:09.769Z,27.83
2019-02-21T11:35:41.689Z,27.13
2019-02-21T11:38:11.181Z,28.97
2019-02-21T11:40:40.795Z,27.70
2019-02-21T11:43:10.234Z,27.70
2019-02-21T11:45:39.646Z,28.37
2019-02-21T11:48:09.437Z,27.67
2019-02-21T11:50:38.979Z,27.27
2019-02-21T11:53:08.426Z,26.60
2019-02-21T11:55:38.239Z,25.67
2019-02-21T11:58:07.904Z,26.00
2019-02-21T12:00:37.932Z,25.30
2019-02-21T12:03:07.419Z,25.07
2019-02-21T12:05:36.827Z,23.80
2019-02-21T12:08:06.390Z,22.03
2019-02-21T12:10:35.806Z,22.43
2019-02-21T12:13:05.216Z,22.37
2019-02-21T12:15:34.644Z,22.23
2019-02-21T12:18:06.870Z,20.73
2019-02-21T12:20:36.300Z,19.03
2019-02-21T12:23:06.193Z,18.20
2019-02-21T12:25:35.614Z,19.60
2019-02-21T12:28:05.082Z,18.67
2019-02-21T12:30:34.945Z,18.87
2019-02-21T12:33:04.420Z,17.87
2019-02-21T12:35:33.928Z,18.27
2019-02-21T12:38:03.435Z,18.40
2019-02-21T12:40:32.834Z,18.83
2019-02-21T12:43:03.554Z,18.90
2019-02-21T12:45:33.071Z,17.83
2019-02-21T12:48:02.483Z,18.50
2019-02-21T12:50:36.798Z,17.73
2019-02-21T12:53:03.280Z,17.40
2019-02-21T12:55:32.738Z,16.87
2019-02-21T12:58:02.244Z,17.03
2019-02-21T13:00:31.661Z,17.30
2019-02-21T13:03:01.117Z,16.20
2019-02-21T13:05:40.463Z,17.17
2019-02-21T13:08:02.110Z,17.87
2019-02-21T13:10:31.604Z,16.83
2019-02-21T13:13:01.104Z,16.53
2019-02-21T13:15:30.670Z,17.57
2019-02-21T13:18:00.199Z,16.67
2019-02-21T13:20:29.649Z,17.30
2019-02-21T13:22:59.376Z,17.47
2019-02-21T13:25:28.835Z,16.33
2019-02-21T13:27:58.341Z,15.47
2019-02-21T13:30:27.843Z,14.87
2019-02-21T13:32:57.365Z,13.17
2019-02-21T13:35:29.404Z,13.57
2019-02-21T13:37:58.986Z,13.17
2019-02-21T13:40:28.442Z,13.53
2019-02-21T13:42:57.872Z,13.70
2019-02-21T13:45:27.482Z,12.93
2019-02-21T13:47:56.993Z,14.37
2019-02-21T13:50:26.459Z,15.27
2019-02-21T13:52:55.912Z,15.70
2019-02-21T13:55:25.431Z,16.37
2019-02-21T13:57:54.938Z,16.23
2019-02-21T14:00:25.518Z,16.67
2019-02-21T14:02:58.188Z,15.97
2019-02-21T14:05:28.004Z,17.13
2019-02-21T14:07:58.021Z,17.23
2019-02-21T14:10:27.565Z,18.20
2019-02-21T14:12:56.994Z,17.37
2019-02-21T14:15:28.851Z,17.70
2019-02-21T14:17:58.299Z,17.83
2019-02-21T14:20:27.769Z,18.77
2019-02-21T14:22:57.239Z,19.50
2019-02-21T14:25:28.480Z,19.13
2019-02-21T14:27:57.746Z,19.60
2019-02-21T14:30:27.214Z,20.30
2019-02-21T14:32:56.766Z,20.67
2019-02-21T14:35:26.368Z,20.27
2019-02-21T14:37:55.891Z,20.67
2019-02-21T14:40:25.452Z,19.93
2019-02-21T14:42:55.108Z,20.17
2019-02-21T14:45:25.585Z,19.20
2019-02-21T14:47:55.302Z,19.17
2019-02-21T14:50:24.908Z,20.07
2019-02-21T14:52:54.347Z,19.20
2019-02-21T14:55:23.811Z,19.77
2019-02-21T14:57:53.366Z,20.83
2019-02-21T15:00:24.262Z,20.27
2019-02-21T15:02:53.720Z,20.70
2019-02-21T15:05:23.208Z,19.73
2019-02-21T15:07:52.697Z,19.83
2019-02-21T15:10:22.124Z,19.77
2019-02-21T15:12:51.734Z,20.43
2019-02-21T15:15:23.301Z,20.17
2019-02-21T15:18:06.669Z,20.10
2019-02-21T15:20:36.374Z,19.63
2019-02-21T15:22:58.056Z,21.07
2019-02-21T15:25:27.526Z,20.27
2019-02-21T15:27:56.964Z,20.03
2019-02-21T15:30:26.468Z,20.00
2019-02-21T15:32:55.881Z,20.20
2019-02-21T15:35:25.297Z,19.80
2019-02-21T15:37:54.811Z,20.40
2019-02-21T15:40:24.464Z,19.97
2019-02-21T15:42:53.915Z,20.73
2019-02-21T15:45:25.792Z,20.60
2019-02-21T15:47:56.503Z,20.67
2019-02-21T15:50:26.011Z,21.53
2019-02-21T15:52:56.537Z,20.50
2019-02-21T15:55:26.085Z,21.27
2019-02-21T15:58:04.146Z,21.57
2019-02-21T16:00:26.705Z,21.43
2019-02-21T16:02:56.211Z,20.70
2019-02-21T16:05:25.662Z,21.63
2019-02-21T16:07:55.120Z,21.53
2019-02-21T16:10:25.575Z,21.90
2019-02-21T16:12:58.527Z,21.67
2019-02-21T16:15:29.731Z,21.47
2019-02-21T16:17:59.297Z,22.07
2019-02-21T16:20:46.367Z,23.43
2019-02-21T16:23:15.826Z,21.87
2019-02-21T16:25:45.343Z,22.30
2019-02-21T16:28:14.777Z,22.00
2019-02-21T16:30:44.193Z,22.63
2019-02-21T16:33:13.691Z,22.37
2019-02-21T16:35:43.518Z,23.43
2019-02-21T16:38:12.983Z,22.90
2019-02-21T16:40:42.406Z,22.80
2019-02-21T16:43:11.899Z,23.30
2019-02-21T16:45:46.271Z,22.67
2019-02-21T16:48:12.869Z,26.00
2019-02-21T16:50:42.431Z,27.70
2019-02-21T16:53:11.942Z,27.20
2019-02-21T16:55:41.432Z,25.13
2019-02-21T16:58:10.896Z,23.03
2019-02-21T17:00:51.340Z,21.90
2019-02-21T17:03:11.513Z,22.00
2019-02-21T17:05:40.948Z,21.10
2019-02-21T17:08:10.482Z,21.80
2019-02-21T17:10:39.908Z,20.70
2019-02-21T17:13:09.416Z,21.17
2019-02-21T17:15:38.852Z,20.60
2019-02-21T17:18:08.301Z,20.40
2019-02-21T17:20:37.772Z,20.20
2019-02-21T17:23:07.245Z,21.47
2019-02-21T17:25:38.997Z,20.90
2019-02-21T17:28:08.457Z,21.20
2019-02-21T17:30:37.852Z,21.53
2019-02-21T17:33:07.279Z,22.23
2019-02-21T17:35:36.697Z,21.37
2019-02-21T17:38:06.450Z,21.70
2019-02-21T17:40:35.962Z,22.40
2019-02-21T17:43:05.393Z,22.40
2019-02-21T17:45:34.811Z,21.97
2019-02-21T17:48:04.472Z,22.33
2019-02-21T17:50:35.670Z,22.53
2019-02-21T17:53:05.170Z,22.97
2019-02-21T17:55:34.565Z,23.43
2019-02-21T17:58:03.988Z,25.07
2019-02-21T18:00:35.079Z,24.57
2019-02-21T18:03:04.576Z,24.30
2019-02-21T18:05:34.091Z,23.57
2019-02-21T18:08:03.487Z,24.10
2019-02-21T18:10:32.934Z,27.17
2019-02-21T18:13:02.384Z,29.67
2019-02-21T18:15:31.797Z,31.30
2019-02-21T18:18:01.311Z,31.83
2019-02-21T18:20:32.149Z,32.57
2019-02-21T18:23:01.548Z,30.47
2019-02-21T18:25:34.325Z,36.50
2019-02-21T18:28:03.735Z,34.27
2019-02-21T18:30:33.247Z,34.87
2019-02-21T18:33:02.656Z,36.90
2019-02-21T18:35:32.159Z,38.53
2019-02-21T18:38:01.594Z,39.87
2019-02-21T18:40:31.074Z,37.97
2019-02-21T18:43:00.475Z,37.77
2019-02-21T18:45:29.889Z,39.73
2019-02-21T18:47:59.483Z,39.53
2019-02-21T18:50:37.778Z,37.37
2019-02-21T18:53:01.567Z,37.70
2019-02-21T18:55:31.061Z,36.97
2019-02-21T18:58:01.020Z,37.90
2019-02-21T19:00:30.441Z,36.13
2019-02-21T19:02:59.893Z,37.10
2019-02-21T19:05:35.943Z,39.23
2019-02-21T19:08:05.166Z,35.97
2019-02-21T19:10:31.689Z,35.93
2019-02-21T19:13:01.093Z,36.27
2019-02-21T19:15:30.581Z,34.50
2019-02-21T19:18:19.359Z,37.37
2019-02-21T19:20:48.808Z,36.83
2019-02-21T19:23:18.275Z,38.80
2019-02-21T19:25:47.699Z,40.03
2019-02-21T19:28:17.117Z,38.23
2019-02-21T19:31:07.591Z,39.80
2019-02-21T19:33:50.289Z,38.87
2019-02-21T19:36:19.695Z,38.47
2019-02-21T19:38:49.119Z,36.67
2019-02-21T19:41:18.544Z,38.63
2019-02-21T19:43:47.963Z,37.73
2019-02-21T19:46:17.389Z,36.80
2019-02-21T19:48:46.869Z,36.57
2019-02-21T19:51:16.328Z,35.90
2019-02-21T19:53:46.931Z,35.80
2019-02-21T19:56:16.334Z,35.63
2019-02-21T19:58:45.763Z,35.30
2019-02-21T20:01:15.200Z,34.67
2019-02-21T20:03:44.643Z,36.70
2019-02-21T20:06:14.077Z,35.70
2019-02-21T20:08:43.563Z,36.93
2019-02-21T20:11:13.008Z,36.57
2019-02-21T20:13:42.396Z,35.90
2019-02-21T20:16:11.802Z,35.17
2019-02-21T20:18:41.227Z,35.90
2019-02-21T20:21:10.648Z,34.53
2019-02-21T20:23:53.287Z,35.80
2019-02-21T20:26:22.744Z,36.33
2019-02-21T20:28:52.194Z,36.60
2019-02-21T20:31:21.611Z,34.63
2019-02-21T20:33:51.043Z,39.40
2019-02-21T20:36:20.518Z,45.90
2019-02-21T20:38:50.023Z,43.20
2019-02-21T20:41:19.458Z,44.77
2019-02-21T20:43:48.873Z,45.40
2019-02-21T20:46:18.295Z,42.80
2019-02-21T20:48:47.730Z,43.17
2019-02-21T20:51:17.179Z,42.73
2019-02-21T20:53:46.636Z,42.40
2019-02-21T20:56:17.367Z,39.60
2019-02-21T20:58:46.753Z,39.43
2019-02-21T21:01:16.432Z,37.63
2019-02-21T21:03:45.864Z,35.97
2019-02-21T21:06:20.411Z,36.40
2019-02-21T21:08:49.835Z,34.20
2019-02-21T21:11:19.294Z,34.37
2019-02-21T21:13:48.782Z,34.03
2019-02-21T21:16:18.245Z,35.50
2019-02-21T21:18:47.746Z,33.67
2019-02-21T21:21:17.206Z,34.90
2019-02-21T21:23:46.655Z,36.43
2019-02-21T21:26:35.404Z,36.20
2019-02-21T21:29:04.830Z,38.03
2019-02-21T21:31:34.318Z,39.30
2019-02-21T21:34:03.721Z,38.50
2019-02-21T21:36:33.187Z,40.37
2019-02-21T21:39:04.772Z,40.80
2019-02-21T21:41:34.194Z,45.10
2019-02-21T21:44:03.734Z,44.60
2019-02-21T21:46:36.021Z,49.10
2019-02-21T21:49:05.434Z,50.63
2019-02-21T21:51:34.882Z,51.87
2019-02-21T21:54:04.335Z,53.67
2019-02-21T21:56:35.045Z,53.63
2019-02-21T21:59:04.532Z,57.87
2019-02-21T22:01:33.980Z,60.17
2019-02-21T22:04:03.416Z,58.83
2019-02-21T22:06:33.016Z,60.63
2019-02-21T22:09:05.025Z,62.83
2019-02-21T22:11:33.736Z,64.17
2019-02-21T22:14:03.192Z,66.70
2019-02-21T22:16:32.684Z,64.53
2019-02-21T22:19:02.123Z,65.33
2019-02-21T22:21:31.690Z,66.10
2019-02-21T22:24:01.115Z,66.83
2019-02-21T22:26:30.558Z,65.43
2019-02-21T22:29:00.011Z,64.47
2019-02-21T22:31:29.411Z,62.57
2019-02-21T22:33:58.860Z,67.73
2019-02-21T22:36:28.320Z,64.73
2019-02-21T22:39:16.319Z,62.73
2019-02-21T22:41:44.024Z,63.03
2019-02-21T22:44:13.475Z,63.27
2019-02-21T22:46:42.931Z,62.43
2019-02-21T22:49:12.389Z,61.17
2019-02-21T22:51:41.849Z,65.37
2019-02-21T22:54:11.305Z,64.37
2019-02-21T22:56:41.259Z,67.23
2019-02-21T22:59:10.673Z,66.27
2019-02-21T23:01:41.145Z,63.17
2019-02-21T23:04:13.752Z,64.40
2019-02-21T23:06:47.308Z,64.07
2019-02-21T23:09:26.959Z,64.87
2019-02-21T23:11:49.835Z,67.10
2019-02-21T23:14:19.633Z,67.97
2019-02-21T23:16:49.192Z,70.10
2019-02-21T23:19:19.004Z,68.20
2019-02-21T23:21:48.468Z,69.43
2019-02-21T23:24:17.912Z,71.87
2019-02-21T23:26:47.326Z,71.30
2019-02-21T23:29:19.553Z,68.50
2019-02-21T23:31:49.031Z,73.87
2019-02-21T23:34:20.040Z,71.50
2019-02-21T23:36:49.501Z,70.37
2019-02-21T23:39:19.044Z,67.97
2019-02-21T23:41:50.226Z,66.27
2019-02-21T23:44:19.736Z,68.57
2019-02-21T23:46:49.221Z,67.50
2019-02-21T23:49:18.671Z,66.03
2019-02-21T23:51:48.110Z,69.67
2019-02-21T23:54:30.131Z,69.10
2019-02-21T23:57:00.640Z,69.37
2019-02-21T23:59:30.146Z,68.27
